Time;durP1;ratioP1;P1;durP2;ratioP2;P2;SDS_P1;SDS_P2;PMS_P1;PMS_P2;Temp;Humidity;BMP_temperature;BMP_pressure;BME280_temperature;BME280_humidity;BME280_pressure;Samples;Min_cycle;Max_cycle;Signal;HPM_P1;HPM_P2
2021/12/11 00:00:28;;;;;;;3.27;2.90;;;;;;;19.99;43.31;96015.47;4987943;28;20237;-83
2021/12/11 00:03:08;;;;;;;3.83;2.97;;;;;;;19.97;43.54;96021.38;4984475;28;20208;-82
2021/12/11 00:05:36;;;;;;;4.07;2.90;;;;;;;19.79;43.58;96006.75;4970147;28;20242;-82
2021/12/11 00:08:03;;;;;;;4.17;2.80;;;;;;;19.59;43.59;95972.50;4990481;28;20237;-81
2021/12/11 00:10:34;;;;;;;5.43;2.90;;;;;;;19.63;43.73;95981.06;4990730;28;20500;-83
2021/12/11 00:13:03;;;;;;;3.10;2.73;;;;;;;19.76;43.80;96029.66;4991161;28;20654;-83
2021/12/11 00:15:32;;;;;;;3.43;2.77;;;;;;;19.61;43.52;95990.38;4990576;28;20602;-82
2021/12/11 00:18:04;;;;;;;3.37;3.07;;;;;;;19.65;43.70;96004.84;4958939;28;20248;-82
2021/12/11 00:20:32;;;;;;;3.33;2.90;;;;;;;19.08;43.58;95902.19;4992203;28;20433;-83
2021/12/11 00:22:59;;;;;;;3.07;2.77;;;;;;;19.88;43.67;96042.53;4990147;28;20238;-83
2021/12/11 00:25:26;;;;;;;3.80;2.93;;;;;;;19.51;43.69;95991.94;5006725;28;20294;-81
2021/12/11 00:27:59;;;;;;;3.17;2.63;;;;;;;19.69;43.98;96029.56;4990119;28;20224;-82
2021/12/11 00:30:30;;;;;;;3.27;2.90;;;;;;;18.27;44.02;95797.56;4956331;28;20294;-82
2021/12/11 00:32:59;;;;;;;3.63;2.63;;;;;;;18.40;44.02;95824.03;4968557;28;20218;-83
2021/12/11 00:35:26;;;;;;;2.63;2.40;;;;;;;19.82;43.85;96074.75;4974823;28;20688;-82
2021/12/11 00:38:09;;;;;;;3.40;2.50;;;;;;;19.80;44.05;96078.94;4958919;28;20290;-81
2021/12/11 00:40:36;;;;;;;3.03;2.57;;;;;;;19.80;44.06;96076.41;4990118;28;20201;-82
2021/12/11 00:43:04;;;;;;;4.07;2.87;;;;;;;19.79;44.04;96088.31;5006536;28;20837;-80
2021/12/11 00:45:33;;;;;;;2.50;2.30;;;;;;;18.12;43.98;95807.50;4974185;28;20568;-81
2021/12/11 00:48:04;;;;;;;3.37;2.57;;;;;;;19.21;44.22;95993.16;4990566;28;20301;-82
2021/12/11 00:50:38;;;;;;;2.90;2.40;;;;;;;17.60;43.91;95739.75;4974596;28;20649;-81
2021/12/11 00:53:16;;;;;;;2.77;2.57;;;;;;;18.85;44.18;95952.78;4990803;28;20203;-81
2021/12/11 00:55:45;;;;;;;3.70;2.60;;;;;;;19.74;44.20;96109.47;4968349;28;20226;-83
2021/12/11 00:58:14;;;;;;;2.40;2.20;;;;;;;19.73;44.12;96110.31;4991969;28;20245;-80
2021/12/11 01:01:01;;;;;;;3.37;2.20;;;;;;;19.73;44.00;96118.81;4991712;28;20234;-83
2021/12/11 01:03:46;;;;;;;2.97;2.60;;;;;;;19.71;44.26;96111.97;4988305;28;20202;-81
2021/12/11 01:06:26;;;;;;;2.90;2.57;;;;;;;19.72;44.35;96118.78;4990946;28;20253;-82
2021/12/11 01:09:06;;;;;;;3.30;2.50;;;;;;;19.72;44.54;96123.88;4965232;28;20602;-80
2021/12/11 01:11:42;;;;;;;2.70;2.50;;;;;;;19.72;44.28;96132.38;4989721;28;20317;-82
2021/12/11 01:14:26;;;;;;;3.53;2.70;;;;;;;19.72;44.20;96141.72;4990879;28;20273;-81
2021/12/11 01:16:57;;;;;;;2.60;2.40;;;;;;;18.23;44.24;95913.59;4988438;28;20655;-86
2021/12/11 01:19:24;;;;;;;2.50;2.30;;;;;;;19.27;44.31;96074.81;4978793;28;20231;-87
2021/12/11 01:21:59;;;;;;;2.70;2.40;;;;;;;18.54;44.36;95962.47;5013190;28;20294;-85
2021/12/11 01:24:42;;;;;;;2.80;2.60;;;;;;;18.76;44.23;96002.66;4997131;28;20531;-88
2021/12/11 01:27:20;;;;;;;3.10;2.33;;;;;;;18.13;44.29;95926.13;4982393;28;20249;-87
2021/12/11 01:29:47;;;;;;;2.93;2.40;;;;;;;18.91;44.37;96038.53;4981637;28;20207;-89
2021/12/11 01:32:14;;;;;;;2.30;2.10;;;;;;;16.66;44.61;95680.50;4998712;28;20367;-88
2021/12/11 01:34:41;;;;;;;2.57;2.20;;;;;;;17.66;44.43;95827.88;4996614;28;20238;-88
2021/12/11 01:37:08;;;;;;;2.53;2.33;;;;;;;18.89;44.46;96035.13;4998081;28;20219;-87
2021/12/11 01:39:37;;;;;;;3.23;2.67;;;;;;;19.32;44.41;96129.22;4991794;28;20234;-81
2021/12/11 01:42:13;;;;;;;2.60;2.40;;;;;;;19.58;44.49;96161.03;4989495;28;20289;-82
2021/12/11 01:44:40;;;;;;;2.73;2.27;;;;;;;18.49;44.50;96003.06;5009418;28;20214;-90
2021/12/11 01:47:24;;;;;;;3.03;2.43;;;;;;;19.39;44.29;96136.13;4964970;28;20241;-87
2021/12/11 01:49:53;;;;;;;2.53;2.20;;;;;;;18.72;44.47;96021.28;4960046;28;20223;-85
2021/12/11 01:52:31;;;;;;;2.47;2.17;;;;;;;19.75;44.25;96196.13;4959861;28;20274;-88
2021/12/11 01:54:58;;;;;;;2.60;2.40;;;;;;;19.00;44.41;96075.19;4994907;28;20583;-88
2021/12/11 01:57:26;;;;;;;2.53;2.03;;;;;;;17.66;44.18;95856.69;5012311;28;20206;-89
2021/12/11 02:00:04;;;;;;;3.13;2.27;;;;;;;19.82;44.18;96214.94;4977555;28;20230;-88
2021/12/11 02:02:37;;;;;;;2.50;2.20;;;;;;;17.58;44.02;95859.91;4992643;28;20230;-87
2021/12/11 02:05:04;;;;;;;2.60;2.13;;;;;;;16.34;44.14;95643.50;4994945;28;20203;-88
2021/12/11 02:07:52;;;;;;;2.30;2.00;;;;;;;19.86;44.12;96214.16;4978312;28;20210;-89
2021/12/11 02:10:33;;;;;;;2.30;2.10;;;;;;;18.27;44.09;95962.84;4975874;28;20207;-88
2021/12/11 02:13:01;;;;;;;4.13;2.50;;;;;;;16.92;44.23;95719.91;4960185;28;20208;-88
2021/12/11 02:15:36;;;;;;;2.67;2.37;;;;;;;18.26;43.96;95963.63;4993521;28;20227;-88
2021/12/11 02:18:10;;;;;;;2.70;2.23;;;;;;;16.96;44.08;95726.72;4991880;28;20244;-88
2021/12/11 02:20:58;;;;;;;2.40;2.20;;;;;;;18.23;44.02;95954.28;4979976;28;20203;-88
2021/12/11 02:23:25;;;;;;;2.30;2.00;;;;;;;17.90;44.10;95891.81;4957073;28;20194;-81
2021/12/11 02:25:54;;;;;;;2.97;2.50;;;;;;;17.60;44.01;95843.03;5004503;28;20206;-82
2021/12/11 02:28:29;;;;;;;2.20;2.00;;;;;;;19.93;43.98;96242.31;4987947;28;20241;-82
2021/12/11 02:31:13;;;;;;;2.20;2.03;;;;;;;19.79;44.04;96227.63;4986858;28;20262;-80
2021/12/11 02:33:52;;;;;;;2.37;2.17;;;;;;;18.82;44.31;96076.56;4973731;28;20294;-82
2021/12/11 02:36:24;;;;;;;2.00;1.80;;;;;;;19.93;43.98;96266.97;4971902;28;20266;-81
2021/12/11 02:39:01;;;;;;;2.10;1.90;;;;;;;18.84;43.97;96075.78;4973371;28;20432;-81
2021/12/11 02:41:31;;;;;;;2.30;2.10;;;;;;;19.92;44.06;96260.13;4979371;28;20222;-82
2021/12/11 02:44:03;;;;;;;2.67;2.30;;;;;;;19.65;43.98;96218.91;5003786;28;20199;-82
2021/12/11 02:46:39;;;;;;;2.53;2.10;;;;;;;19.91;44.08;96263.53;4988315;28;20302;-81
2021/12/11 02:49:22;;;;;;;2.77;2.23;;;;;;;19.91;44.14;96277.13;4971607;28;20214;-81
2021/12/11 02:51:53;;;;;;;2.53;2.20;;;;;;;19.90;44.07;96270.31;4988078;28;20370;-81
2021/12/11 02:54:33;;;;;;;2.20;2.00;;;;;;;19.47;44.14;96205.88;4989197;28;20230;-83
2021/12/11 02:57:23;;;;;;;2.33;2.10;;;;;;;19.71;44.04;96245.38;4987722;28;20222;-82
2021/12/11 02:59:50;;;;;;;2.20;2.00;;;;;;;19.85;44.31;96271.94;4987939;28;20203;-81
2021/12/11 03:02:25;;;;;;;2.63;1.87;;;;;;;19.86;44.28;96273.66;4958292;28;20253;-80
2021/12/11 03:04:55;;;;;;;2.67;2.40;;;;;;;18.23;44.29;96002.59;4971946;28;20210;-82
2021/12/11 03:07:26;;;;;;;2.13;1.90;;;;;;;18.18;44.52;96005.88;4971033;28;20238;-81
2021/12/11 03:09:55;;;;;;;2.50;2.23;;;;;;;19.83;44.39;96288.91;4971916;28;20673;-81
2021/12/11 03:12:23;;;;;;;2.40;2.20;;;;;;;18.64;44.34;96091.50;4988037;28;20219;-87
2021/12/11 03:14:49;;;;;;;2.57;2.17;;;;;;;18.23;44.31;96026.31;4990863;28;20218;-85
2021/12/11 03:17:17;;;;;;;3.00;2.13;;;;;;;18.07;44.46;96015.88;4997744;28;20654;-88
2021/12/11 03:19:45;;;;;;;2.10;1.90;;;;;;;19.78;44.32;96302.41;4996350;28;20258;-87
2021/12/11 03:22:19;;;;;;;2.40;2.20;;;;;;;18.31;44.43;96079.00;4996581;28;20223;-86
2021/12/11 03:24:47;;;;;;;2.53;2.00;;;;;;;16.57;44.68;95799.50;4995883;28;20698;-87
2021/12/11 03:27:14;;;;;;;2.43;1.90;;;;;;;16.75;44.47;95801.56;4980188;28;20522;-87
2021/12/11 03:29:41;;;;;;;1.97;1.77;;;;;;;19.78;44.46;96323.63;4965041;28;20233;-87
2021/12/11 03:32:08;;;;;;;2.43;2.23;;;;;;;17.57;44.54;95952.19;4980240;28;20231;-87
2021/12/11 03:34:35;;;;;;;2.10;1.90;;;;;;;17.59;44.41;96006.41;4996262;28;20207;-87
2021/12/11 03:37:03;;;;;;;2.03;1.90;;;;;;;18.50;44.29;96111.63;5011773;28;20285;-87
2021/12/11 03:39:33;;;;;;;2.47;1.70;;;;;;;18.22;44.37;96106.81;4980023;28;20214;-87
2021/12/11 03:42:01;;;;;;;2.27;2.07;;;;;;;18.87;44.45;96187.81;4979695;28;20358;-87
2021/12/11 03:44:32;;;;;;;2.30;2.10;;;;;;;19.40;44.30;96266.06;4980432;28;20207;-88
2021/12/11 03:47:04;;;;;;;2.27;2.07;;;;;;;19.87;44.41;96356.94;4979338;28;20199;-82
2021/12/11 03:49:32;;;;;;;2.10;1.90;;;;;;;19.89;44.34;96368.03;5002168;28;20202;-82
2021/12/11 03:52:00;;;;;;;2.00;1.80;;;;;;;19.89;44.30;96373.13;4987869;28;20281;-82
2021/12/11 03:54:28;;;;;;;1.90;1.70;;;;;;;19.21;44.19;96251.25;4988297;28;20230;-82
2021/12/11 03:56:56;;;;;;;2.10;1.90;;;;;;;19.90;44.25;96371.44;4969951;28;20263;-82
2021/12/11 03:59:22;;;;;;;2.10;1.90;;;;;;;19.43;44.24;96298.38;4971243;28;20312;-81
2021/12/11 04:01:55;;;;;;;2.30;1.83;;;;;;;19.65;44.36;96339.56;4972587;28;20259;-82
2021/12/11 04:04:27;;;;;;;2.20;2.00;;;;;;;19.66;44.29;96348.91;4982853;28;20219;-82
2021/12/11 04:06:58;;;;;;;2.00;1.80;;;;;;;19.86;44.42;96396.03;4985218;28;20267;-83
2021/12/11 04:09:25;;;;;;;2.30;2.10;;;;;;;19.86;44.29;96400.25;4986723;28;20269;-82
2021/12/11 04:11:52;;;;;;;1.67;1.57;;;;;;;19.09;44.37;96281.56;4986910;28;20234;-81
2021/12/11 04:14:21;;;;;;;1.80;1.70;;;;;;;19.84;44.43;96415.53;4953225;28;20757;-81
2021/12/11 04:16:48;;;;;;;2.03;1.70;;;;;;;18.84;44.50;96241.22;4970867;28;20250;-81
2021/12/11 04:19:15;;;;;;;2.20;1.80;;;;;;;19.66;44.41;96397.34;4986004;28;20684;-83
2021/12/11 04:21:42;;;;;;;2.50;1.83;;;;;;;19.48;44.47;96371.50;4967208;28;20282;-81
2021/12/11 04:24:09;;;;;;;1.90;1.80;;;;;;;18.77;44.53;96251.25;4954565;28;20231;-81
2021/12/11 04:26:36;;;;;;;2.10;1.90;;;;;;;18.93;44.38;96279.56;4954424;28;20223;-81
2021/12/11 04:29:03;;;;;;;2.13;1.80;;;;;;;19.54;44.35;96396.28;4954416;28;20302;-82
2021/12/11 04:31:31;;;;;;;2.00;1.80;;;;;;;18.46;44.37;96234.50;4969877;28;20308;-82
2021/12/11 04:34:02;;;;;;;1.97;1.80;;;;;;;17.00;44.38;95964.50;4986264;28;20868;-80
2021/12/11 04:36:32;;;;;;;2.00;1.90;;;;;;;19.19;44.67;96343.72;4986898;28;20326;-82
2021/12/11 04:38:59;;;;;;;1.87;1.70;;;;;;;19.79;44.51;96455.38;4970828;28;20218;-82
2021/12/11 04:41:33;;;;;;;2.97;2.17;;;;;;;19.78;44.58;96457.91;4987676;28;20231;-80
2021/12/11 04:44:02;;;;;;;1.87;1.73;;;;;;;18.53;44.45;96246.50;4986394;28;20207;-79
2021/12/11 04:46:28;;;;;;;1.80;1.70;;;;;;;19.77;44.71;96458.72;4986236;28;20203;-82
2021/12/11 04:49:13;;;;;;;2.00;1.80;;;;;;;19.52;44.62;96420.84;4986442;28;20238;-82
2021/12/11 04:51:56;;;;;;;1.70;1.60;;;;;;;19.75;44.61;96458.69;5020643;23;20248;-84
2021/12/11 04:55:15;;;;;;;2.10;1.90;;;;;;;19.29;44.52;96400.00;5014261;28;20247;-84
2021/12/11 04:57:48;;;;;;;1.93;1.80;;;;;;;19.37;44.73;96420.53;5010458;28;20261;-85
2021/12/11 05:00:14;;;;;;;1.73;1.63;;;;;;;19.41;44.83;96435.94;5017612;28;20723;-84
2021/12/11 05:03:09;;;;;;;2.03;1.83;;;;;;;18.78;44.80;96325.06;5009893;28;20330;-84
2021/12/11 05:13:17;;;;;;;2.03;1.70;;;;;;;18.45;44.86;96291.28;4994382;28;20701;-83
2021/12/11 05:15:45;;;;;;;1.83;1.60;;;;;;;18.68;44.78;96329.94;4995304;28;20309;-84
2021/12/11 05:18:14;;;;;;;1.97;1.63;;;;;;;18.48;44.76;96315.91;4993942;28;20198;-84
2021/12/11 05:20:42;;;;;;;1.80;1.70;;;;;;;18.88;44.92;96382.09;5010845;28;20198;-86
2021/12/11 05:23:08;;;;;;;1.50;1.40;;;;;;;19.09;44.76;96419.06;5007411;28;20593;-85
2021/12/11 05:25:35;;;;;;;1.93;1.73;;;;;;;18.86;44.90;96378.69;5010261;28;20666;-84
2021/12/11 05:28:02;;;;;;;2.40;1.90;;;;;;;19.08;44.89;96422.47;4993786;28;20285;-84
2021/12/11 05:30:35;;;;;;;1.50;1.40;;;;;;;18.90;44.79;96401.69;4994826;28;20233;-83
2021/12/11 05:33:02;;;;;;;1.73;1.63;;;;;;;19.23;44.92;96477.94;5023914;28;20273;-86
2021/12/11 05:35:30;;;;;;;1.90;1.73;;;;;;;18.34;45.01;96300.31;4991371;28;20261;-84
2021/12/11 05:37:57;;;;;;;1.73;1.63;;;;;;;19.20;44.90;96455.81;4993519;28;20309;-84
2021/12/11 05:40:23;;;;;;;1.93;1.70;;;;;;;19.51;44.89;96519.34;4978141;28;20719;-83
2021/12/11 05:42:50;;;;;;;1.80;1.70;;;;;;;19.48;45.01;96514.19;5009986;28;20335;-84
2021/12/11 05:45:17;;;;;;;1.77;1.60;;;;;;;19.37;44.81;96496.97;5026210;28;20567;-83
2021/12/11 05:47:43;;;;;;;1.70;1.60;;;;;;;18.13;45.00;96290.53;5027207;28;20698;-83
2021/12/11 05:50:13;;;;;;;1.80;1.70;;;;;;;19.32;44.90;96501.09;5023237;28;20719;-85
2021/12/11 05:52:40;;;;;;;1.73;1.63;;;;;;;19.06;45.05;96458.88;4982521;28;20294;-84
2021/12/11 05:55:09;;;;;;;2.27;1.67;;;;;;;18.48;45.17;96365.13;4993925;28;20241;-85
2021/12/11 05:57:37;;;;;;;1.80;1.50;;;;;;;18.75;44.95;96425.94;4995143;28;20313;-84
2021/12/11 06:00:08;;;;;;;1.60;1.50;;;;;;;19.09;45.03;96472.53;5027842;28;20241;-84
2021/12/11 06:02:55;;;;;;;1.90;1.60;;;;;;;19.15;45.17;96517.66;4982755;28;20223;-85
2021/12/11 06:05:22;;;;;;;2.13;1.60;;;;;;;19.48;45.08;96557.50;4978679;28;20209;-84
2021/12/11 06:07:49;;;;;;;1.50;1.40;;;;;;;18.97;45.14;96476.50;5010360;28;20499;-85
2021/12/11 06:10:17;;;;;;;1.50;1.40;;;;;;;19.24;45.14;96512.75;4987147;28;20206;-84
2021/12/11 06:12:45;;;;;;;1.80;1.70;;;;;;;19.34;45.05;96541.09;4997000;28;20257;-86
2021/12/11 06:15:11;;;;;;;1.80;1.70;;;;;;;19.44;45.08;96565.94;5008258;28;20245;-85
2021/12/11 06:17:38;;;;;;;1.50;1.40;;;;;;;19.53;45.05;96590.75;5008320;28;20699;-87
2021/12/11 06:20:06;;;;;;;1.63;1.53;;;;;;;19.09;45.02;96512.41;4991612;28;20288;-84
2021/12/11 06:22:33;;;;;;;1.60;1.50;;;;;;;19.30;44.86;96553.72;5007608;28;20249;-84
2021/12/11 06:25:06;;;;;;;1.73;1.63;;;;;;;19.09;45.20;96518.38;5008166;28;20277;-83
2021/12/11 06:27:33;;;;;;;2.40;1.80;;;;;;;19.62;45.17;96614.75;4995675;28;20194;-84
2021/12/11 06:29:59;;;;;;;1.57;1.47;;;;;;;18.40;45.42;96421.72;4992548;28;20226;-84
2021/12/11 06:32:26;;;;;;;1.60;1.50;;;;;;;18.36;45.11;96414.81;4996691;28;20254;-84
2021/12/11 06:34:56;;;;;;;1.70;1.60;;;;;;;19.43;45.06;96611.75;4976203;28;20242;-83
2021/12/11 06:37:23;;;;;;;1.40;1.30;;;;;;;19.10;45.21;96557.44;4994047;28;20238;-83
2021/12/11 06:39:50;;;;;;;1.60;1.50;;;;;;;19.60;45.14;96656.34;5016944;28;20233;-84
2021/12/11 06:42:17;;;;;;;1.63;1.53;;;;;;;19.58;45.23;96660.53;4998070;28;20269;-84
2021/12/11 06:44:43;;;;;;;1.70;1.60;;;;;;;18.66;45.30;96513.13;4978734;28;20791;-84
2021/12/11 06:47:10;;;;;;;1.40;1.30;;;;;;;18.15;45.31;96435.50;5011661;28;20688;-85
2021/12/11 06:49:38;;;;;;;1.40;1.30;;;;;;;19.04;45.26;96567.50;5009473;28;20943;-84
2021/12/11 06:52:08;;;;;;;1.70;1.60;;;;;;;19.13;45.16;96591.47;5004599;28;20244;-85
2021/12/11 06:54:35;;;;;;;1.57;1.43;;;;;;;19.08;45.24;96595.63;4991415;28;20229;-84
2021/12/11 06:57:04;;;;;;;1.50;1.40;;;;;;;19.28;45.23;96637.75;5007715;28;20219;-84
2021/12/11 06:59:31;;;;;;;1.63;1.53;;;;;;;19.14;45.25;96620.34;4992361;28;20740;-85
2021/12/11 07:01:57;;;;;;;1.50;1.40;;;;;;;18.94;45.20;96591.00;5004206;28;20749;-84
2021/12/11 07:04:24;;;;;;;1.63;1.50;;;;;;;18.34;45.28;96515.63;4985921;28;20210;-87
2021/12/11 07:06:51;;;;;;;1.60;1.50;;;;;;;19.21;45.46;96660.41;4979868;28;20219;-93
2021/12/11 07:09:19;;;;;;;1.53;1.43;;;;;;;19.33;45.04;96707.47;4978531;28;20198;-93
2021/12/11 07:11:46;;;;;;;1.80;1.70;;;;;;;17.87;45.00;96446.63;5001103;28;20238;-94
2021/12/11 07:14:14;;;;;;;1.53;1.40;;;;;;;18.19;45.06;96516.09;4981881;28;20229;-95
2021/12/11 07:16:42;;;;;;;1.60;1.43;;;;;;;18.79;45.12;96605.88;4982240;28;20298;-94
2021/12/11 07:19:09;;;;;;;2.23;1.80;;;;;;;18.28;45.15;96523.97;4997932;28;20229;-93
2021/12/11 07:21:36;;;;;;;1.63;1.53;;;;;;;19.23;45.23;96699.53;4975475;28;20211;-93
2021/12/11 07:24:04;;;;;;;1.60;1.50;;;;;;;18.61;45.02;96623.22;4981673;28;20238;-93
2021/12/11 07:26:33;;;;;;;1.70;1.60;;;;;;;18.62;45.33;96623.25;4982215;28;20242;-93
2021/12/11 07:29:20;;;;;;;1.47;1.37;;;;;;;16.94;45.18;96311.09;4983565;28;20198;-92
2021/12/11 07:31:47;;;;;;;1.70;1.60;;;;;;;18.38;44.62;96564.09;5007675;28;20238;-91
2021/12/11 07:34:16;;;;;;;1.77;1.50;;;;;;;18.75;43.87;96634.63;5011236;28;20314;-91
2021/12/11 07:36:44;;;;;;;1.90;1.80;;;;;;;19.18;42.91;96701.97;4976740;28;20273;-91
2021/12/11 07:39:12;;;;;;;2.23;1.97;;;;;;;19.19;42.48;96705.38;4978968;28;20266;-90
2021/12/11 07:41:39;;;;;;;2.37;1.53;;;;;;;19.29;42.38;96732.84;4995086;28;20233;-91
2021/12/11 07:44:05;;;;;;;2.63;1.87;;;;;;;18.39;42.39;96575.16;4997369;28;20257;-92
2021/12/11 07:46:32;;;;;;;2.20;2.00;;;;;;;19.28;42.82;96741.31;4984449;28;20233;-91
2021/12/11 07:48:59;;;;;;;1.90;1.80;;;;;;;18.45;42.86;96586.34;4992499;28;20282;-93
2021/12/11 07:51:27;;;;;;;2.27;1.87;;;;;;;18.79;42.81;96661.88;5033852;28;20320;-91
2021/12/11 07:53:57;;;;;;;1.67;1.57;;;;;;;18.72;42.78;96642.19;5004458;28;20565;-93
2021/12/11 07:56:24;;;;;;;2.00;1.90;;;;;;;19.43;42.69;96772.28;5002876;28;20203;-93
2021/12/11 07:58:54;;;;;;;1.87;1.77;;;;;;;18.90;42.88;96671.53;4997967;28;20211;-91
2021/12/11 08:01:20;;;;;;;2.00;1.50;;;;;;;18.54;42.70;96614.59;5011134;28;20199;-92
2021/12/11 08:03:47;;;;;;;3.80;1.90;;;;;;;18.19;42.79;96564.41;4979684;28;20222;-90
2021/12/11 08:06:14;;;;;;;2.50;1.70;;;;;;;19.23;43.12;96759.00;4980022;28;20266;-91
2021/12/11 08:08:41;;;;;;;6.10;2.03;;;;;;;19.06;43.00;96727.13;4982263;28;20234;-91
2021/12/11 08:11:12;;;;;;;4.57;1.70;;;;;;;19.16;43.11;96739.25;5012236;28;20245;-92
2021/12/11 08:13:40;;;;;;;3.13;1.63;;;;;;;18.95;43.09;96700.50;4992363;28;20202;-91
2021/12/11 08:16:08;;;;;;;2.20;1.93;;;;;;;19.40;43.07;96807.88;5028836;28;20605;-92
2021/12/11 08:18:34;;;;;;;4.60;1.87;;;;;;;18.69;43.18;96668.44;5026252;28;20226;-90
2021/12/11 08:21:01;;;;;;;1.77;1.67;;;;;;;18.60;43.31;96663.09;5009803;28;20241;-91
2021/12/11 08:23:28;;;;;;;2.33;2.00;;;;;;;18.87;43.26;96708.75;4978205;28;20237;-93
2021/12/11 08:25:55;;;;;;;5.63;1.93;;;;;;;18.37;43.22;96646.31;4988091;28;20222;-89
2021/12/11 08:28:24;;;;;;;2.87;1.77;;;;;;;18.17;43.34;96602.50;5014839;28;20656;-89
2021/12/11 08:30:51;;;;;;;5.60;2.03;;;;;;;19.54;43.21;96844.78;5016786;28;20226;-90
2021/12/11 08:33:18;;;;;;;2.90;1.53;;;;;;;19.66;43.22;96873.13;5000201;28;20880;-93
2021/12/11 08:35:45;;;;;;;1.73;1.60;;;;;;;19.44;43.44;96838.56;4986715;28;20621;-92
2021/12/11 08:38:12;;;;;;;2.83;1.70;;;;;;;18.16;43.19;96616.06;4990957;28;20214;-91
2021/12/11 08:40:46;;;;;;;1.97;1.70;;;;;;;20.06;43.40;96943.84;5002132;28;20237;-90
2021/12/11 08:43:14;;;;;;;1.60;1.47;;;;;;;19.01;43.29;96766.03;5013739;28;20222;-91
2021/12/11 08:45:56;;;;;;;1.90;1.40;;;;;;;19.81;43.14;96938.09;5004540;28;20187;-92
2021/12/11 08:48:24;;;;;;;1.80;1.70;;;;;;;18.88;42.98;96746.13;5000875;28;20284;-92
2021/12/11 08:50:54;;;;;;;2.10;1.67;;;;;;;19.35;43.24;96827.25;5032936;28;20210;-91
2021/12/11 08:53:21;;;;;;;1.83;1.60;;;;;;;19.76;43.30;96919.31;5034854;28;20249;-92
2021/12/11 08:55:50;;;;;;;1.77;1.53;;;;;;;18.79;42.91;96738.22;5001275;28;20230;-93
2021/12/11 08:58:18;;;;;;;1.70;1.60;;;;;;;19.18;43.19;96816.56;5030920;28;20695;-90
2021/12/11 09:01:07;;;;;;;1.70;1.60;;;;;;;19.55;43.50;96888.13;4999460;28;20622;-94
2021/12/11 09:04:07;;;;;;;2.80;1.83;;;;;;;20.15;43.32;96987.50;4997830;28;20611;-93
2021/12/11 09:06:40;;;;;;;1.50;1.40;;;;;;;19.62;43.48;96901.88;5002614;28;20230;-90
2021/12/11 09:09:24;;;;;;;4.17;1.87;;;;;;;18.97;43.28;96798.16;4979239;28;20661;-92
2021/12/11 09:12:02;;;;;;;2.73;1.77;;;;;;;20.15;43.32;97008.78;4963750;28;20265;-91
2021/12/11 09:14:34;;;;;;;4.83;2.00;;;;;;;20.15;43.25;97016.44;5010567;28;20249;-93
2021/12/11 09:17:09;;;;;;;3.97;1.90;;;;;;;18.98;43.29;96809.22;5014730;28;20218;-92
2021/12/11 09:19:51;;;;;;;5.57;1.87;;;;;;;19.66;43.31;96945.34;5013567;28;20274;-92
2021/12/11 09:22:22;;;;;;;4.50;1.80;;;;;;;20.18;43.38;97023.28;5032580;28;20226;-92
2021/12/11 09:24:55;;;;;;;4.47;2.00;;;;;;;20.19;43.31;97027.59;5019432;28;20229;-89
2021/12/11 09:27:25;;;;;;;3.50;1.60;;;;;;;19.15;43.33;96857.25;5007433;28;20207;-92
2021/12/11 09:30:12;;;;;;;4.27;1.87;;;;;;;19.16;43.48;96896.31;5007214;28;20214;-91
2021/12/11 09:33:01;;;;;;;3.40;1.97;;;;;;;18.49;43.27;96762.81;4982264;28;20691;-90
2021/12/11 09:35:43;;;;;;;7.80;2.10;;;;;;;18.59;43.43;96803.00;4999771;28;20245;-91
2021/12/11 09:38:31;;;;;;;5.73;1.77;;;;;;;19.74;43.11;96988.91;5025151;28;20222;-93
2021/12/11 09:40:58;;;;;;;3.30;1.73;;;;;;;19.93;43.59;97042.16;4981350;28;20249;-92
2021/12/11 09:43:31;;;;;;;5.97;1.70;;;;;;;20.23;43.43;97070.22;5006907;28;20729;-90
2021/12/11 09:45:58;;;;;;;6.00;2.27;;;;;;;19.66;43.17;96985.28;5012840;28;20195;-90
2021/12/11 09:48:25;;;;;;;4.03;1.70;;;;;;;18.67;43.52;96814.25;4979442;28;20222;-92
2021/12/11 09:50:58;;;;;;;5.27;2.00;;;;;;;19.37;43.49;96947.91;4981551;28;20199;-91
2021/12/11 09:53:31;;;;;;;3.13;2.20;;;;;;;18.41;43.38;96774.47;4985933;28;20238;-91
2021/12/11 09:55:58;;;;;;;5.00;2.00;;;;;;;20.23;43.24;97105.94;4979889;28;20207;-92
2021/12/11 09:58:28;;;;;;;8.13;2.20;;;;;;;18.98;43.70;96896.63;4980717;28;20226;-92
2021/12/11 10:01:03;;;;;;;7.27;1.90;;;;;;;20.23;43.62;97090.63;4979553;28;20266;-91
2021/12/11 10:03:38;;;;;;;4.97;1.80;;;;;;;19.31;43.59;96942.66;5013726;28;20202;-91
2021/12/11 10:06:14;;;;;;;6.63;2.40;;;;;;;18.67;43.61;96825.28;5001462;28;20206;-91
2021/12/11 10:08:45;;;;;;;2.70;2.07;;;;;;;19.60;43.63;97002.97;5003951;28;20968;-91
2021/12/11 10:11:21;;;;;;;6.50;2.13;;;;;;;18.66;43.44;96822.72;4999833;28;20195;-92
2021/12/11 10:13:50;;;;;;;5.80;3.13;;;;;;;19.08;41.84;96915.59;4995867;28;20191;-92
2021/12/11 10:16:18;;;;;;;7.83;3.67;;;;;;;18.04;40.99;96754.66;5020182;28;20210;-92
2021/12/11 10:18:45;;;;;;;4.27;3.87;;;;;;;19.82;40.74;97036.75;4985752;28;20233;-90
2021/12/11 10:21:26;;;;;;;4.73;3.40;;;;;;;19.88;40.99;97071.75;5003268;28;20288;-91
2021/12/11 10:23:54;;;;;;;9.70;4.40;;;;;;;17.76;39.90;96707.19;4987648;28;20288;-91
2021/12/11 10:26:22;;;;;;;5.13;4.60;;;;;;;18.54;38.66;96856.28;4998853;28;20201;-91
2021/12/11 10:28:51;;;;;;;4.87;4.47;;;;;;;17.52;38.40;96705.56;4979549;28;20250;-89
2021/12/11 10:31:29;;;;;;;5.10;4.60;;;;;;;17.35;38.66;96643.19;5010374;28;20205;-91
2021/12/11 10:33:58;;;;;;;5.03;4.60;;;;;;;19.98;38.78;97117.09;4996090;28;20194;-92
2021/12/11 10:36:28;;;;;;;4.90;4.40;;;;;;;18.91;39.50;96948.22;5027967;28;20230;-92
2021/12/11 10:38:56;;;;;;;4.53;4.03;;;;;;;18.54;40.01;96873.22;5004703;28;20773;-90
2021/12/11 10:41:26;;;;;;;5.73;4.13;;;;;;;19.02;40.50;96953.63;5012691;28;20261;-91
2021/12/11 10:43:56;;;;;;;5.00;4.43;;;;;;;18.61;40.72;96888.72;4980211;28;20201;-89
2021/12/11 10:46:27;;;;;;;4.10;3.67;;;;;;;19.10;40.89;96983.59;4980339;28;20207;-91
2021/12/11 10:48:53;;;;;;;4.27;3.87;;;;;;;18.53;41.24;96905.44;4980811;28;20625;-91
2021/12/11 10:54:09;;;;;;;6.43;3.90;;;;;;;19.41;41.27;97037.22;5033377;28;20217;-88
2021/12/11 10:56:37;;;;;;;3.50;3.20;;;;;;;20.11;41.46;97164.22;5035470;28;20610;-88
2021/12/11 10:59:06;;;;;;;3.80;3.50;;;;;;;16.49;41.68;96553.22;5041507;28;20234;-89
2021/12/11 11:01:45;;;;;;;4.27;3.27;;;;;;;17.86;41.43;96810.84;4990180;28;20275;-88
2021/12/11 11:04:16;;;;;;;3.27;2.97;;;;;;;17.92;41.77;96805.13;5021571;28;20284;-88
2021/12/11 11:06:45;;;;;;;4.97;3.10;;;;;;;18.47;42.06;96909.50;5002012;28;20201;-87
2021/12/11 11:09:15;;;;;;;3.70;3.33;;;;;;;19.72;42.13;97125.69;5022145;28;20707;-88
2021/12/11 11:11:43;;;;;;;5.73;3.43;;;;;;;20.17;41.97;97197.59;5005902;28;20198;-89
2021/12/11 11:14:10;;;;;;;4.07;2.90;;;;;;;17.68;42.11;96768.75;5003488;28;20273;-88
2021/12/11 11:16:40;;;;;;;3.60;3.00;;;;;;;17.43;42.32;96756.94;4997123;28;20228;-89
2021/12/11 11:19:07;;;;;;;3.40;3.10;;;;;;;18.30;42.25;96901.28;4997471;28;20236;-89
2021/12/11 11:21:38;;;;;;;3.70;2.87;;;;;;;19.04;42.23;97011.41;5023393;28;20205;-90
2021/12/11 11:24:05;;;;;;;8.03;3.60;;;;;;;18.79;42.39;96964.78;5037876;28;20657;-88
2021/12/11 11:26:34;;;;;;;6.83;3.07;;;;;;;19.23;42.53;97058.69;5013810;28;20202;-87
2021/12/11 11:29:04;;;;;;;4.40;3.10;;;;;;;18.47;42.63;96928.13;5019811;28;20263;-89
2021/12/11 11:31:34;;;;;;;6.60;3.70;;;;;;;19.98;42.74;97189.38;5021208;28;20213;-87
2021/12/11 11:34:02;;;;;;;7.70;4.03;;;;;;;19.40;42.49;97094.13;5004487;28;20265;-89
2021/12/11 11:36:30;;;;;;;7.50;4.00;;;;;;;20.14;42.51;97229.00;5007202;28;20209;-88
2021/12/11 11:38:59;;;;;;;6.30;3.90;;;;;;;17.02;42.43;96696.25;5007841;28;20220;-88
2021/12/11 11:41:28;;;;;;;7.53;4.00;;;;;;;18.35;42.55;96957.41;5004440;28;20228;-91
2021/12/11 11:43:56;;;;;;;4.30;3.47;;;;;;;18.69;42.42;97029.81;5012749;28;20178;-89
2021/12/11 11:46:24;;;;;;;5.43;3.63;;;;;;;19.68;42.58;97178.25;5008940;28;20206;-91
2021/12/11 11:48:52;;;;;;;5.80;3.50;;;;;;;18.62;42.77;96988.84;4995623;28;20266;-89
2021/12/11 11:51:48;;;;;;;6.67;3.73;;;;;;;18.31;42.62;96948.78;5011438;28;20268;-90
2021/12/11 11:54:15;;;;;;;8.87;4.00;;;;;;;16.82;42.71;96740.41;5004199;28;20205;-89
2021/12/11 11:56:46;;;;;;;8.47;4.23;;;;;;;17.51;42.90;96819.03;5010611;28;20201;-91
2021/12/11 11:59:13;;;;;;;8.20;4.40;;;;;;;18.80;42.87;97037.81;5015288;28;20226;-88
2021/12/11 12:01:51;;;;;;;8.83;4.03;;;;;;;18.07;42.96;96913.25;5029428;28;20205;-88